Time;durP1;ratioP1;P1;durP2;ratioP2;P2;SDS_P1;SDS_P2;PMS_P1;PMS_P2;Temp;Humidity;BMP_temperature;BMP_pressure;BME280_temperature;BME280_humidity;BME280_pressure;Samples;Min_cycle;Max_cycle;Signal;HPM_P1;HPM_P2
2024/04/19 00:01:46;;;;;;;13.05;11.95;;;;;;;;;;5417529;26;20335;-79
2024/04/19 00:04:12;;;;;;;12.68;11.57;;;;;;;;;;5414521;26;20347;-80
2024/04/19 00:06:38;;;;;;;13.23;12.13;;;;;;;;;;5416531;26;20331;-79
2024/04/19 00:09:04;;;;;;;13.00;11.80;;;;;;;;;;5417106;26;20424;-79
2024/04/19 00:11:30;;;;;;;12.57;11.38;;;;;;;;;;5416742;26;20328;-79
2024/04/19 00:13:56;;;;;;;13.63;12.32;;;;;;;;;;5417261;26;20324;-79
2024/04/19 00:16:22;;;;;;;13.70;12.43;;;;;;;;;;5417492;26;20388;-79
2024/04/19 00:18:48;;;;;;;13.05;11.75;;;;;;;;;;5417048;26;20666;-79
2024/04/19 00:21:14;;;;;;;15.18;13.60;;;;;;;;;;5417226;26;20839;-79
2024/04/19 00:23:40;;;;;;;15.23;13.65;;;;;;;;;;5418384;26;20403;-80
2024/04/19 00:26:06;;;;;;;14.90;13.50;;;;;;;;;;5420348;26;20412;-80
2024/04/19 00:28:32;;;;;;;13.70;12.50;;;;;;;;;;5418458;26;20856;-79
2024/04/19 00:30:58;;;;;;;12.68;11.57;;;;;;;;;;5385778;26;20360;-80
2024/04/19 00:33:24;;;;;;;12.80;11.70;;;;;;;;;;5416896;26;20371;-79
2024/04/19 00:35:50;;;;;;;13.40;12.20;;;;;;;;;;5417064;26;20343;-79
2024/04/19 00:38:16;;;;;;;12.80;11.60;;;;;;;;;;5416452;26;20887;-79
2024/04/19 00:40:42;;;;;;;12.48;11.48;;;;;;;;;;5416682;26;20340;-79
2024/04/19 00:43:08;;;;;;;12.50;11.40;;;;;;;;;;5417143;26;20374;-79
2024/04/19 00:45:38;;;;;;;11.85;10.85;;;;;;;;;;5416729;26;20677;-80
2024/04/19 00:48:17;;;;;;;12.20;11.20;;;;;;;;;;5417401;26;20390;-80
2024/04/19 00:50:48;;;;;;;12.70;11.63;;;;;;;;;;5416306;26;20331;-80
2024/04/19 00:53:16;;;;;;;12.00;11.00;;;;;;;;;;5417141;26;20379;-80
2024/04/19 00:55:42;;;;;;;12.05;11.05;;;;;;;;;;5417276;26;20831;-80
2024/04/19 00:58:08;;;;;;;12.10;11.10;;;;;;;;;;5417452;26;20368;-80
2024/04/19 01:00:34;;;;;;;12.93;11.82;;;;;;;;;;5416440;26;20378;-79
2024/04/19 01:03:00;;;;;;;12.77;11.68;;;;;;;;;;5416995;26;20335;-79
2024/04/19 01:05:26;;;;;;;13.00;11.80;;;;;;;;;;5416428;26;20367;-80
2024/04/19 01:07:53;;;;;;;13.25;12.15;;;;;;;;;;5416072;26;20406;-80
2024/04/19 01:10:19;;;;;;;14.23;13.02;;;;;;;;;;5416504;26;20331;-80
2024/04/19 01:12:45;;;;;;;13.65;12.52;;;;;;;;;;5416649;26;20383;-79
2024/04/19 01:15:18;;;;;;;13.17;12.07;;;;;;;;;;5416998;26;20359;-79
2024/04/19 01:17:44;;;;;;;12.95;11.85;;;;;;;;;;5417845;26;20364;-80
2024/04/19 01:20:10;;;;;;;14.40;13.10;;;;;;;;;;5419119;26;20339;-80
2024/04/19 01:22:37;;;;;;;15.18;13.88;;;;;;;;;;5418473;26;20382;-80
2024/04/19 01:25:07;;;;;;;15.93;14.25;;;;;;;;;;5418556;26;20335;-80
2024/04/19 01:27:33;;;;;;;16.00;14.40;;;;;;;;;;5417595;26;20362;-79
2024/04/19 01:29:59;;;;;;;15.60;14.10;;;;;;;;;;5417528;26;20332;-80
2024/04/19 01:32:25;;;;;;;15.80;13.95;;;;;;;;;;5417387;26;20888;-80
2024/04/19 01:34:51;;;;;;;14.60;13.40;;;;;;;;;;5418212;26;20328;-80
2024/04/19 01:37:17;;;;;;;14.82;13.52;;;;;;;;;;5417698;26;20365;-79
2024/04/19 01:39:42;;;;;;;15.02;13.52;;;;;;;;;;5418027;26;20331;-80
2024/04/19 01:42:09;;;;;;;15.33;13.87;;;;;;;;;;5417827;26;20374;-80
2024/04/19 01:44:35;;;;;;;16.05;14.55;;;;;;;;;;5417477;26;20327;-79
2024/04/19 01:47:01;;;;;;;17.33;15.52;;;;;;;;;;5417143;26;20343;-79
2024/04/19 01:49:27;;;;;;;16.73;15.00;;;;;;;;;;5416717;26;20343;-79
2024/04/19 01:51:53;;;;;;;16.75;15.07;;;;;;;;;;5416610;26;20415;-79
2024/04/19 01:54:19;;;;;;;17.23;15.50;;;;;;;;;;5416033;26;20336;-79
2024/04/19 01:56:45;;;;;;;17.60;15.80;;;;;;;;;;5416193;26;20876;-79
2024/04/19 01:59:11;;;;;;;17.73;15.90;;;;;;;;;;5416695;26;20344;-79
2024/04/19 02:01:37;;;;;;;16.35;14.75;;;;;;;;;;5416576;26;20391;-80
2024/04/19 02:04:03;;;;;;;17.02;15.32;;;;;;;;;;5415637;26;20406;-80
2024/04/19 02:06:29;;;;;;;16.75;15.05;;;;;;;;;;5416264;26;20340;-79
2024/04/19 02:08:55;;;;;;;17.13;15.43;;;;;;;;;;5416512;26;20434;-79
2024/04/19 02:11:21;;;;;;;15.90;14.40;;;;;;;;;;5415890;26;20331;-79
2024/04/19 02:13:47;;;;;;;14.73;13.43;;;;;;;;;;5416684;26;21128;-79
2024/04/19 02:16:13;;;;;;;15.02;13.68;;;;;;;;;;5416329;26;20384;-80
2024/04/19 02:18:39;;;;;;;14.52;13.23;;;;;;;;;;5416633;26;20327;-80
2024/04/19 02:21:05;;;;;;;13.73;12.55;;;;;;;;;;5416368;26;20368;-80
2024/04/19 02:23:37;;;;;;;15.37;13.97;;;;;;;;;;5416831;26;20327;-79
2024/04/19 02:26:04;;;;;;;16.30;14.70;;;;;;;;;;5415017;26;20316;-79
2024/04/19 02:31:15;;;;;;;17.05;15.30;;;;;;;;;;5414843;26;20446;-79
2024/04/19 02:33:41;;;;;;;18.13;16.23;;;;;;;;;;5415139;26;20376;-79
2024/04/19 02:36:09;;;;;;;17.80;15.90;;;;;;;;;;5414629;26;20371;-79
2024/04/19 02:38:36;;;;;;;17.15;15.45;;;;;;;;;;5414647;26;20938;-79
2024/04/19 02:41:02;;;;;;;16.50;14.80;;;;;;;;;;5414986;26;20382;-79
2024/04/19 02:43:28;;;;;;;16.75;15.13;;;;;;;;;;5415433;26;20315;-79
2024/04/19 02:45:54;;;;;;;17.35;15.63;;;;;;;;;;5414919;26;20336;-79
2024/04/19 02:48:20;;;;;;;17.88;15.98;;;;;;;;;;5414426;26;20365;-80
2024/04/19 02:50:50;;;;;;;18.50;16.58;;;;;;;;;;5414483;26;20891;-79
2024/04/19 02:53:16;;;;;;;20.55;16.65;;;;;;;;;;5414962;26;20937;-79
2024/04/19 02:55:42;;;;;;;17.63;15.82;;;;;;;;;;5414471;26;20372;-79
2024/04/19 02:58:08;;;;;;;17.50;15.73;;;;;;;;;;5414780;26;20328;-79
2024/04/19 03:00:34;;;;;;;17.08;15.32;;;;;;;;;;5414248;26;20835;-79
2024/04/19 03:03:00;;;;;;;17.42;15.73;;;;;;;;;;5414483;26;20354;-79
2024/04/19 03:05:26;;;;;;;17.45;15.65;;;;;;;;;;5414211;26;20332;-80
2024/04/19 03:07:52;;;;;;;18.10;16.15;;;;;;;;;;5413942;26;20879;-79
2024/04/19 03:10:18;;;;;;;17.37;15.53;;;;;;;;;;5414264;26;20425;-79
2024/04/19 03:12:44;;;;;;;17.90;16.02;;;;;;;;;;5413849;26;20855;-79
2024/04/19 03:15:10;;;;;;;17.77;15.88;;;;;;;;;;5416038;26;20731;-79
2024/04/19 03:17:36;;;;;;;19.95;17.88;;;;;;;;;;5417656;26;20335;-79
2024/04/19 03:20:02;;;;;;;19.27;17.27;;;;;;;;;;5417642;26;20365;-79
2024/04/19 03:22:28;;;;;;;21.10;17.08;;;;;;;;;;5417372;26;20387;-79
2024/04/19 03:24:54;;;;;;;19.90;17.90;;;;;;;;;;5417685;26;20339;-79
2024/04/19 03:27:20;;;;;;;18.85;16.73;;;;;;;;;;5418050;26;20331;-79
2024/04/19 03:29:56;;;;;;;20.30;18.10;;;;;;;;;;5417122;26;20343;-79
2024/04/19 03:32:23;;;;;;;23.30;19.65;;;;;;;;;;5417880;26;20927;-79
2024/04/19 03:34:49;;;;;;;23.35;18.90;;;;;;;;;;5417854;26;20316;-79
2024/04/19 03:37:15;;;;;;;23.05;19.42;;;;;;;;;;5418019;26;20327;-79
2024/04/19 03:39:42;;;;;;;23.40;19.70;;;;;;;;;;5417677;26;20374;-79
2024/04/19 03:42:11;;;;;;;26.55;21.27;;;;;;;;;;5417801;26;20684;-79
2024/04/19 03:47:22;;;;;;;23.57;19.17;;;;;;;;;;5417747;26;20545;-79
2024/04/19 03:49:48;;;;;;;21.52;18.15;;;;;;;;;;5417105;26;20927;-79
2024/04/19 03:52:14;;;;;;;19.87;17.73;;;;;;;;;;5417180;26;20331;-79
2024/04/19 03:54:41;;;;;;;20.30;17.75;;;;;;;;;;5416926;26;20375;-79
2024/04/19 03:57:07;;;;;;;20.40;16.80;;;;;;;;;;5418520;26;20896;-79
2024/04/19 03:59:33;;;;;;;19.85;17.25;;;;;;;;;;5420378;26;20430;-80
2024/04/19 04:02:01;;;;;;;19.97;17.40;;;;;;;;;;5419468;26;20841;-80
2024/04/19 04:04:27;;;;;;;20.05;17.92;;;;;;;;;;5418484;26;20334;-80
2024/04/19 04:06:53;;;;;;;21.90;18.27;;;;;;;;;;5419092;26;20807;-80
2024/04/19 04:09:19;;;;;;;22.13;18.20;;;;;;;;;;5418903;26;20378;-80
2024/04/19 04:11:45;;;;;;;22.97;18.90;;;;;;;;;;5419314;26;20684;-80
2024/04/19 04:14:11;;;;;;;19.92;17.80;;;;;;;;;;5419757;26;20380;-79
2024/04/19 04:16:37;;;;;;;21.65;18.42;;;;;;;;;;5418927;26;20436;-80
2024/04/19 04:19:03;;;;;;;19.30;17.27;;;;;;;;;;5420374;26;20387;-80
2024/04/19 04:21:29;;;;;;;18.45;16.45;;;;;;;;;;5420577;26;20340;-80
2024/04/19 04:23:55;;;;;;;19.50;16.77;;;;;;;;;;5419701;26;20332;-80
2024/04/19 04:26:21;;;;;;;18.35;16.40;;;;;;;;;;5421107;26;20999;-80
2024/04/19 04:28:48;;;;;;;19.02;16.77;;;;;;;;;;5422027;26;20332;-80
2024/04/19 04:31:14;;;;;;;18.42;16.55;;;;;;;;;;5389932;26;20386;-79
2024/04/19 04:33:40;;;;;;;18.08;16.25;;;;;;;;;;5419021;26;20368;-79
2024/04/19 04:36:06;;;;;;;19.02;17.00;;;;;;;;;;5422024;26;20808;-80
2024/04/19 04:38:32;;;;;;;19.70;17.60;;;;;;;;;;5419915;26;20363;-79
2024/04/19 04:40:58;;;;;;;20.37;17.67;;;;;;;;;;5420356;26;20370;-79
2024/04/19 04:43:24;;;;;;;20.13;17.45;;;;;;;;;;5419201;26;20343;-79
2024/04/19 04:45:50;;;;;;;21.00;18.52;;;;;;;;;;5418818;26;20332;-79
2024/04/19 04:48:16;;;;;;;21.70;18.50;;;;;;;;;;5418468;26;20336;-79
2024/04/19 04:50:42;;;;;;;20.77;17.60;;;;;;;;;;5418510;26;20339;-79
2024/04/19 04:53:08;;;;;;;20.88;17.27;;;;;;;;;;5418535;26;20328;-80
2024/04/19 04:55:34;;;;;;;18.98;16.98;;;;;;;;;;5419759;26;20860;-79
2024/04/19 04:58:01;;;;;;;17.98;16.17;;;;;;;;;;5418214;26;20347;-80
2024/04/19 05:00:28;;;;;;;17.40;15.50;;;;;;;;;;5418315;26;20381;-80
2024/04/19 05:02:56;;;;;;;17.45;15.55;;;;;;;;;;5418281;26;20343;-79
2024/04/19 05:05:22;;;;;;;16.55;14.85;;;;;;;;;;5421168;26;20791;-80
2024/04/19 05:07:48;;;;;;;16.42;14.73;;;;;;;;;;5418576;26;20433;-80
2024/04/19 05:10:14;;;;;;;16.10;14.60;;;;;;;;;;5418589;26;20332;-80
2024/04/19 05:12:40;;;;;;;16.98;15.35;;;;;;;;;;5418977;26;20332;-80
2024/04/19 05:15:06;;;;;;;16.70;15.05;;;;;;;;;;5421664;26;20331;-80
2024/04/19 05:17:32;;;;;;;17.35;15.50;;;;;;;;;;5420721;26;20327;-79
2024/04/19 05:19:58;;;;;;;16.70;14.90;;;;;;;;;;5421531;26;20375;-79
2024/04/19 05:22:24;;;;;;;17.27;15.57;;;;;;;;;;5420625;26;20665;-79
2024/04/19 05:24:50;;;;;;;17.58;15.43;;;;;;;;;;5421620;26;20379;-80
2024/04/19 05:27:16;;;;;;;17.77;16.03;;;;;;;;;;5422321;26;20323;-80
2024/04/19 05:29:42;;;;;;;17.52;15.55;;;;;;;;;;5420311;26;20379;-80
2024/04/19 05:32:08;;;;;;;16.85;15.13;;;;;;;;;;5421759;26;20403;-80
2024/04/19 05:34:37;;;;;;;16.75;15.05;;;;;;;;;;5420218;26;20879;-80
2024/04/19 05:37:03;;;;;;;15.57;14.10;;;;;;;;;;5420936;26;20324;-80
2024/04/19 05:39:29;;;;;;;15.82;14.23;;;;;;;;;;5419910;26;20375;-79
2024/04/19 05:41:55;;;;;;;16.17;14.68;;;;;;;;;;5420411;26;20807;-80
2024/04/19 05:44:21;;;;;;;16.00;14.47;;;;;;;;;;5419191;26;20534;-80
2024/04/19 05:46:47;;;;;;;16.67;14.98;;;;;;;;;;5420043;26;20348;-80
2024/04/19 05:49:13;;;;;;;15.68;14.05;;;;;;;;;;5418304;26;20328;-79
2024/04/19 05:51:39;;;;;;;15.00;13.45;;;;;;;;;;5419658;26;20899;-80
2024/04/19 05:54:05;;;;;;;15.35;13.95;;;;;;;;;;5420062;26;20327;-80
2024/04/19 05:56:31;;;;;;;14.80;13.50;;;;;;;;;;5387144;26;20331;-80
2024/04/19 05:58:57;;;;;;;15.13;13.67;;;;;;;;;;5417772;26;20434;-79
2024/04/19 06:01:26;;;;;;;15.68;14.15;;;;;;;;;;5416344;26;20331;-80
2024/04/19 06:03:52;;;;;;;16.15;14.55;;;;;;;;;;5386197;26;20369;-80
2024/04/19 06:06:19;;;;;;;15.38;13.80;;;;;;;;;;5415319;26;20316;-80
2024/04/19 06:08:45;;;;;;;15.25;13.75;;;;;;;;;;5417847;26;20375;-79
2024/04/19 06:11:11;;;;;;;15.23;13.73;;;;;;;;;;5418351;26;20327;-80
2024/04/19 06:13:37;;;;;;;14.45;13.15;;;;;;;;;;5416985;26;20676;-80
2024/04/19 06:16:04;;;;;;;13.57;12.27;;;;;;;;;;5417492;26;20418;-80
2024/04/19 06:18:30;;;;;;;12.70;11.50;;;;;;;;;;5416393;26;20821;-81
2024/04/19 06:20:59;;;;;;;13.45;12.25;;;;;;;;;;5416931;26;20340;-78
2024/04/19 06:23:25;;;;;;;13.05;11.90;;;;;;;;;;5417455;26;20335;-78
2024/04/19 06:25:52;;;;;;;13.50;12.02;;;;;;;;;;5384932;26;20372;-78
2024/04/19 06:28:18;;;;;;;13.38;11.98;;;;;;;;;;5417724;26;20335;-79
2024/04/19 06:30:44;;;;;;;13.55;12.25;;;;;;;;;;5415957;26;20339;-79
2024/04/19 06:33:10;;;;;;;14.35;12.85;;;;;;;;;;5415930;26;20328;-79
2024/04/19 06:35:37;;;;;;;13.05;11.85;;;;;;;;;;5415623;26;20362;-79
2024/04/19 06:38:03;;;;;;;12.68;11.52;;;;;;;;;;5415506;26;20337;-79
2024/04/19 06:40:29;;;;;;;12.75;11.55;;;;;;;;;;5414973;26;20332;-79
2024/04/19 06:42:55;;;;;;;12.75;11.45;;;;;;;;;;5416097;26;20445;-79
2024/04/19 06:45:21;;;;;;;13.00;11.80;;;;;;;;;;5414687;26;20704;-77
2024/04/19 06:47:47;;;;;;;13.97;12.67;;;;;;;;;;5414481;26;20336;-80
2024/04/19 06:50:13;;;;;;;12.63;11.50;;;;;;;;;;5415022;26;20333;-80
2024/04/19 06:52:39;;;;;;;12.30;11.10;;;;;;;;;;5415184;26;20323;-80
2024/04/19 06:55:05;;;;;;;12.07;11.02;;;;;;;;;;5415061;26;20364;-80
2024/04/19 06:57:31;;;;;;;11.87;10.77;;;;;;;;;;5414998;26;20335;-80
2024/04/19 07:03:04;;;;;;;12.20;11.10;;;;;;;;;;5413602;26;20931;-79
2024/04/19 07:05:47;;;;;;;12.27;11.18;;;;;;;;;;5413900;26;20376;-79
2024/04/19 07:08:13;;;;;;;11.80;10.80;;;;;;;;;;5413682;26;20434;-79
2024/04/19 07:10:50;;;;;;;12.35;11.20;;;;;;;;;;5413801;26;20704;-80
2024/04/19 07:13:16;;;;;;;11.68;10.48;;;;;;;;;;5378029;26;20414;-79
2024/04/19 07:15:45;;;;;;;12.00;11.00;;;;;;;;;;5413717;26;20327;-81
2024/04/19 07:18:15;;;;;;;12.15;11.05;;;;;;;;;;5413580;26;20327;-77
2024/04/19 07:20:41;;;;;;;11.77;10.77;;;;;;;;;;5413498;26;20688;-77
2024/04/19 07:23:07;;;;;;;11.38;10.38;;;;;;;;;;5413297;26;20364;-79
2024/04/19 07:25:33;;;;;;;11.48;10.48;;;;;;;;;;5413681;26;20372;-80
2024/04/19 07:27:59;;;;;;;11.43;10.40;;;;;;;;;;5413830;26;20328;-80
2024/04/19 07:30:25;;;;;;;11.20;10.27;;;;;;;;;;5413509;26;20332;-77
2024/04/19 07:32:51;;;;;;;11.33;10.23;;;;;;;;;;5413837;26;20874;-77
2024/04/19 07:35:18;;;;;;;11.75;10.75;;;;;;;;;;5413950;26;20328;-78
2024/04/19 07:37:44;;;;;;;11.27;10.27;;;;;;;;;;5413867;26;20351;-78
2024/04/19 07:40:10;;;;;;;11.77;10.63;;;;;;;;;;5413976;26;20335;-78
2024/04/19 07:42:36;;;;;;;10.65;9.70;;;;;;;;;;5414468;26;20800;-79
2024/04/19 07:45:03;;;;;;;10.35;9.45;;;;;;;;;;5413843;26;20427;-78
2024/04/19 07:47:29;;;;;;;10.45;9.55;;;;;;;;;;5413870;26;20438;-78
2024/04/19 07:49:57;;;;;;;10.07;9.18;;;;;;;;;;5413111;26;20347;-78
2024/04/19 07:52:23;;;;;;;10.50;9.40;;;;;;;;;;5412384;26;20324;-77
2024/04/19 07:54:49;;;;;;;10.10;9.30;;;;;;;;;;5413408;26;20354;-77
2024/04/19 07:57:22;;;;;;;10.77;9.88;;;;;;;;;;5413238;26;20816;-78
2024/04/19 07:59:48;;;;;;;10.32;9.38;;;;;;;;;;5413129;26;20437;-77
2024/04/19 08:02:14;;;;;;;10.27;9.23;;;;;;;;;;5414402;26;20351;-77
2024/04/19 08:04:40;;;;;;;9.87;8.97;;;;;;;;;;5415523;26;20327;-77
2024/04/19 08:07:15;;;;;;;9.13;8.38;;;;;;;;;;5417111;26;20395;-79
2024/04/19 08:09:41;;;;;;;9.70;8.82;;;;;;;;;;5416849;26;20669;-79
2024/04/19 08:12:07;;;;;;;13.15;9.07;;;;;;;;;;5385603;26;20450;-79
2024/04/19 08:14:34;;;;;;;9.70;8.87;;;;;;;;;;5415924;26;20831;-79
2024/04/19 08:17:00;;;;;;;10.18;9.23;;;;;;;;;;5416047;26;20360;-79
2024/04/19 08:19:26;;;;;;;9.68;8.77;;;;;;;;;;5416058;26;20316;-79
2024/04/19 08:21:52;;;;;;;9.25;8.45;;;;;;;;;;5416282;26;20328;-79
2024/04/19 08:24:18;;;;;;;10.13;9.23;;;;;;;;;;5416428;26;20408;-79
2024/04/19 08:26:44;;;;;;;9.32;8.52;;;;;;;;;;5416504;26;20354;-79
2024/04/19 08:29:10;;;;;;;9.20;8.38;;;;;;;;;;5415827;26;20332;-79
2024/04/19 08:31:35;;;;;;;9.55;8.65;;;;;;;;;;5416505;26;20361;-79
2024/04/19 08:34:01;;;;;;;8.98;8.18;;;;;;;;;;5416368;26;20331;-79
2024/04/19 08:36:28;;;;;;;8.45;7.75;;;;;;;;;;5416514;26;20339;-79
2024/04/19 08:38:53;;;;;;;8.65;7.95;;;;;;;;;;5416917;26;20316;-79
2024/04/19 08:41:22;;;;;;;8.25;7.55;;;;;;;;;;5416377;26;20371;-79
2024/04/19 08:43:52;;;;;;;8.55;7.75;;;;;;;;;;5416500;26;20832;-79
2024/04/19 08:46:19;;;;;;;8.45;7.75;;;;;;;;;;5416872;26;20328;-79
2024/04/19 08:48:45;;;;;;;8.55;7.75;;;;;;;;;;5415763;26;20708;-79
2024/04/19 08:51:13;;;;;;;7.95;7.28;;;;;;;;;;5416203;26;20335;-79
2024/04/19 08:53:42;;;;;;;8.18;7.38;;;;;;;;;;5417384;26;20391;-79
2024/04/19 08:56:09;;;;;;;8.25;7.53;;;;;;;;;;5417364;26;20837;-79
2024/04/19 08:58:35;;;;;;;7.72;7.03;;;;;;;;;;5416735;26;20804;-79
2024/04/19 09:01:01;;;;;;;7.97;7.28;;;;;;;;;;5416805;26;20343;-79
2024/04/19 09:03:28;;;;;;;7.43;6.72;;;;;;;;;;5416797;26;20930;-79
2024/04/19 09:05:55;;;;;;;7.55;6.88;;;;;;;;;;5416720;26;20801;-79
2024/04/19 09:08:22;;;;;;;7.80;7.10;;;;;;;;;;5416419;26;20331;-79
2024/04/19 09:10:51;;;;;;;7.82;7.13;;;;;;;;;;5417220;26;21074;-79
2024/04/19 09:13:17;;;;;;;7.77;7.07;;;;;;;;;;5417017;26;20891;-79
2024/04/19 09:15:46;;;;;;;7.10;6.50;;;;;;;;;;5416957;26;20391;-79
2024/04/19 09:18:12;;;;;;;7.30;6.60;;;;;;;;;;5416912;26;20414;-79
2024/04/19 09:20:47;;;;;;;7.47;6.78;;;;;;;;;;5417023;26;20421;-79
2024/04/19 09:23:14;;;;;;;8.77;6.50;;;;;;;;;;5417244;26;20383;-80
2024/04/19 09:25:40;;;;;;;6.80;6.20;;;;;;;;;;5416843;26;20453;-80
2024/04/19 09:28:11;;;;;;;6.65;6.15;;;;;;;;;;5417184;26;21097;-80
2024/04/19 09:30:40;;;;;;;6.38;5.88;;;;;;;;;;5417022;26;20348;-80
2024/04/19 09:33:06;;;;;;;7.00;6.40;;;;;;;;;;5416784;26;20380;-80
2024/04/19 09:35:32;;;;;;;7.90;6.47;;;;;;;;;;5385308;26;20800;-79
2024/04/19 09:37:58;;;;;;;7.03;6.43;;;;;;;;;;5417077;26;20356;-79
2024/04/19 09:40:26;;;;;;;6.72;6.13;;;;;;;;;;5416128;26;20347;-80
2024/04/19 09:42:54;;;;;;;6.75;6.03;;;;;;;;;;5416183;26;20824;-79
2024/04/19 09:45:21;;;;;;;6.97;6.32;;;;;;;;;;5416135;26;20827;-80
2024/04/19 09:47:53;;;;;;;6.18;5.68;;;;;;;;;;5416367;26;20363;-80
2024/04/19 09:50:20;;;;;;;6.22;5.72;;;;;;;;;;5415581;26;20340;-79
2024/04/19 09:52:47;;;;;;;6.30;5.80;;;;;;;;;;5415768;26;20324;-80
2024/04/19 09:55:19;;;;;;;6.30;5.70;;;;;;;;;;5415982;26;20327;-79
2024/04/19 09:57:46;;;;;;;7.13;6.25;;;;;;;;;;5412991;26;20383;-80
2024/04/19 10:00:14;;;;;;;6.20;5.70;;;;;;;;;;5415114;26;20963;-79
2024/04/19 10:02:40;;;;;;;7.03;6.43;;;;;;;;;;5415778;26;20479;-80
2024/04/19 10:05:07;;;;;;;6.50;5.90;;;;;;;;;;5416213;26;20324;-80
2024/04/19 10:07:33;;;;;;;7.47;6.80;;;;;;;;;;5415925;26;20387;-79
2024/04/19 10:10:02;;;;;;;7.18;6.55;;;;;;;;;;5415679;26;20336;-79
2024/04/19 10:12:28;;;;;;;7.78;6.97;;;;;;;;;;5415284;26;20324;-79
2024/04/19 10:14:54;;;;;;;7.23;6.63;;;;;;;;;;5415173;26;20364;-79
2024/04/19 10:17:20;;;;;;;6.95;6.35;;;;;;;;;;5415347;26;20327;-79
2024/04/19 10:19:47;;;;;;;7.40;6.70;;;;;;;;;;5415365;26;20362;-79
2024/04/19 10:22:12;;;;;;;7.07;6.47;;;;;;;;;;5415535;26;20331;-80
2024/04/19 10:24:39;;;;;;;7.55;6.95;;;;;;;;;;5413695;26;21048;-79
2024/04/19 10:27:05;;;;;;;8.25;7.55;;;;;;;;;;5415097;26;20332;-79
2024/04/19 10:29:32;;;;;;;8.32;7.53;;;;;;;;;;5414965;26;20380;-79
2024/04/19 10:31:58;;;;;;;8.02;7.32;;;;;;;;;;5414751;26;20339;-81
2024/04/19 10:34:24;;;;;;;7.60;6.93;;;;;;;;;;5415315;26;20356;-79
2024/04/19 10:36:53;;;;;;;7.55;6.95;;;;;;;;;;5414841;26;20871;-78
2024/04/19 10:39:19;;;;;;;7.97;7.28;;;;;;;;;;5414748;26;20331;-78
2024/04/19 10:41:49;;;;;;;7.82;7.05;;;;;;;;;;5415446;26;20327;-79
2024/04/19 10:44:16;;;;;;;8.35;7.65;;;;;;;;;;5414673;26;21374;-79
2024/04/19 10:46:47;;;;;;;7.47;6.85;;;;;;;;;;5415772;26;20331;-79
2024/04/19 10:49:15;;;;;;;8.10;7.40;;;;;;;;;;5415597;26;20340;-79
2024/04/19 10:51:41;;;;;;;7.63;6.83;;;;;;;;;;5415136;26;20335;-79
2024/04/19 10:54:07;;;;;;;7.57;6.97;;;;;;;;;;5415117;26;20331;-79
2024/04/19 10:56:36;;;;;;;7.82;7.13;;;;;;;;;;5415355;26;20343;-79
2024/04/19 10:59:02;;;;;;;6.55;6.05;;;;;;;;;;5415181;26;20335;-79
2024/04/19 11:01:28;;;;;;;7.10;6.50;;;;;;;;;;5415198;26;20989;-79
2024/04/19 11:03:54;;;;;;;7.13;6.43;;;;;;;;;;5415432;26;20339;-79
2024/04/19 11:06:20;;;;;;;6.40;5.80;;;;;;;;;;5414926;26;20888;-80
2024/04/19 11:08:46;;;;;;;6.88;6.35;;;;;;;;;;5414644;26;20347;-80
2024/04/19 11:11:12;;;;;;;6.47;5.88;;;;;;;;;;5414317;26;20385;-80
2024/04/19 11:13:38;;;;;;;7.28;5.95;;;;;;;;;;5415014;26;20335;-81
2024/04/19 11:16:04;;;;;;;7.15;6.55;;;;;;;;;;5414784;26;20680;-81
2024/04/19 11:18:30;;;;;;;7.10;6.50;;;;;;;;;;5414415;26;20406;-81
2024/04/19 11:20:56;;;;;;;6.57;5.97;;;;;;;;;;5413890;26;20331;-80
2024/04/19 11:23:23;;;;;;;6.60;6.00;;;;;;;;;;5413580;26;20457;-80
2024/04/19 11:25:49;;;;;;;7.10;6.50;;;;;;;;;;5413898;26;20343;-79
2024/04/19 11:28:15;;;;;;;6.97;6.38;;;;;;;;;;5414540;26;20409;-79
2024/04/19 11:30:41;;;;;;;6.53;5.82;;;;;;;;;;5414418;26;20741;-78
2024/04/19 11:33:08;;;;;;;6.53;5.93;;;;;;;;;;5414022;26;20429;-78
2024/04/19 11:35:38;;;;;;;7.00;6.40;;;;;;;;;;5415269;26;20349;-79
2024/04/19 11:38:04;;;;;;;6.38;5.70;;;;;;;;;;5417806;26;20335;-79
2024/04/19 11:40:30;;;;;;;6.40;5.90;;;;;;;;;;5417552;26;20335;-79
2024/04/19 11:42:56;;;;;;;7.13;6.43;;;;;;;;;;5417434;26;20339;-79
2024/04/19 11:45:22;;;;;;;6.05;5.55;;;;;;;;;;5417949;26;20380;-78
2024/04/19 11:47:52;;;;;;;6.63;6.05;;;;;;;;;;5417731;26;21147;-79
2024/04/19 11:50:21;;;;;;;6.22;5.72;;;;;;;;;;5417211;26;20339;-79
2024/04/19 11:52:47;;;;;;;6.45;5.95;;;;;;;;;;5417463;26;20335;-79
2024/04/19 11:55:13;;;;;;;6.50;5.90;;;;;;;;;;5417981;26;20339;-79
2024/04/19 11:57:39;;;;;;;6.05;5.55;;;;;;;;;;5417461;26;20336;-78
2024/04/19 12:00:06;;;;;;;6.53;5.93;;;;;;;;;;5417413;26;20438;-79
2024/04/19 12:02:32;;;;;;;5.40;5.00;;;;;;;;;;5416744;26;20682;-78
2024/04/19 12:04:58;;;;;;;5.68;5.20;;;;;;;;;;5417092;26;20375;-78
2024/04/19 12:07:24;;;;;;;5.38;4.97;;;;;;;;;;5417124;26;20343;-78
2024/04/19 12:09:50;;;;;;;5.72;5.22;;;;;;;;;;5417198;26;20375;-78
2024/04/19 12:12:19;;;;;;;5.35;4.90;;;;;;;;;;5417016;26;20335;-78
2024/04/19 12:14:45;;;;;;;5.60;5.10;;;;;;;;;;5417484;26;20327;-78
2024/04/19 12:17:12;;;;;;;5.23;4.83;;;;;;;;;;5417976;26;20332;-78
2024/04/19 12:19:38;;;;;;;5.10;4.65;;;;;;;;;;5417626;26;20744;-78
2024/04/19 12:22:05;;;;;;;4.90;4.50;;;;;;;;;;5418049;26;20433;-78
2024/04/19 12:24:36;;;;;;;4.85;4.43;;;;;;;;;;5417667;26;20335;-78
2024/04/19 12:27:04;;;;;;;4.80;4.38;;;;;;;;;;5416920;26;20426;-78
2024/04/19 12:29:30;;;;;;;4.70;4.30;;;;;;;;;;5417285;26;20375;-79
2024/04/19 12:31:56;;;;;;;5.10;4.70;;;;;;;;;;5417095;26;20331;-79
2024/04/19 12:34:22;;;;;;;5.45;4.95;;;;;;;;;;5417410;26;20328;-79
2024/04/19 12:36:48;;;;;;;5.00;4.45;;;;;;;;;;5417184;26;21094;-79
2024/04/19 12:39:14;;;;;;;4.57;4.28;;;;;;;;;;5417095;26;20354;-79
2024/04/19 12:41:40;;;;;;;4.82;4.43;;;;;;;;;;5417225;26;20722;-79
2024/04/19 12:44:07;;;;;;;4.75;4.35;;;;;;;;;;5417402;26;20335;-79
2024/04/19 12:46:34;;;;;;;4.90;4.50;;;;;;;;;;5417267;26;20384;-79
2024/04/19 12:49:06;;;;;;;4.63;4.22;;;;;;;;;;5417061;26;20324;-79
2024/04/19 12:51:34;;;;;;;4.72;4.32;;;;;;;;;;5417949;26;20372;-79
2024/04/19 12:54:00;;;;;;;4.60;4.00;;;;;;;;;;5417342;26;20331;-79
2024/04/19 12:56:26;;;;;;;3.90;3.60;;;;;;;;;;5417257;26;20343;-80
2024/04/19 12:58:52;;;;;;;4.05;3.75;;;;;;;;;;5417507;26;20673;-79
2024/04/19 13:01:19;;;;;;;4.30;3.90;;;;;;;;;;5416876;26;20400;-79
2024/04/19 13:03:45;;;;;;;3.92;3.53;;;;;;;;;;5416843;26;20382;-79
2024/04/19 13:06:11;;;;;;;4.65;4.20;;;;;;;;;;5417894;26;21023;-79
2024/04/19 13:08:37;;;;;;;3.77;3.13;;;;;;;;;;5417900;26;20576;-78
2024/04/19 13:11:03;;;;;;;4.35;3.95;;;;;;;;;;5418180;26;20387;-79
2024/04/19 13:13:53;;;;;;;4.10;3.67;;;;;;;;;;5386335;26;20343;-79
2024/04/19 13:16:19;;;;;;;4.50;4.10;;;;;;;;;;5383180;26;20334;-80
2024/04/19 13:18:45;;;;;;;4.15;3.85;;;;;;;;;;5393546;26;20412;-80
2024/04/19 13:21:11;;;;;;;4.45;4.00;;;;;;;;;;5394565;26;20324;-80
2024/04/19 13:23:37;;;;;;;4.47;4.07;;;;;;;;;;5411696;26;20323;-80
2024/04/19 13:26:04;;;;;;;6.07;4.20;;;;;;;;;;5418078;26;20400;-79
2024/04/19 13:28:30;;;;;;;5.03;4.40;;;;;;;;;;5417815;26;20424;-79
2024/04/19 13:30:56;;;;;;;4.88;4.47;;;;;;;;;;5418042;26;20848;-79
2024/04/19 13:33:24;;;;;;;4.80;4.37;;;;;;;;;;5415902;26;20331;-79
2024/04/19 13:35:50;;;;;;;4.72;4.22;;;;;;;;;;5417864;26;20380;-80
2024/04/19 13:38:16;;;;;;;4.80;4.30;;;;;;;;;;5416948;26;20335;-79
2024/04/19 13:40:42;;;;;;;4.80;4.43;;;;;;;;;;5417595;26;20339;-79
2024/04/19 13:43:08;;;;;;;4.53;4.13;;;;;;;;;;5419252;26;20328;-79
2024/04/19 13:45:34;;;;;;;4.80;4.40;;;;;;;;;;5417530;26;20378;-79
2024/04/19 13:48:00;;;;;;;4.82;4.43;;;;;;;;;;5417475;26;20950;-79
2024/04/19 13:50:26;;;;;;;5.18;4.78;;;;;;;;;;5418154;26;20365;-79
2024/04/19 13:52:52;;;;;;;5.00;4.60;;;;;;;;;;5418456;26;20489;-78
2024/04/19 13:55:18;;;;;;;5.82;5.32;;;;;;;;;;5419384;26;20399;-78
2024/04/19 13:57:45;;;;;;;4.70;4.40;;;;;;;;;;5420027;26;20327;-80
2024/04/19 14:00:11;;;;;;;5.47;4.97;;;;;;;;;;5417927;26;20339;-79
2024/04/19 14:02:37;;;;;;;5.80;5.20;;;;;;;;;;5417969;26;20339;-78
2024/04/19 14:05:03;;;;;;;5.40;4.93;;;;;;;;;;5418778;26;20372;-79
2024/04/19 14:07:29;;;;;;;5.33;4.90;;;;;;;;;;5417579;26;20877;-79
2024/04/19 14:09:55;;;;;;;5.50;5.10;;;;;;;;;;5418403;26;20343;-78
2024/04/19 14:12:22;;;;;;;5.53;5.03;;;;;;;;;;5419248;26;20335;-78
2024/04/19 14:14:48;;;;;;;6.00;5.47;;;;;;;;;;5418637;26;20328;-78
2024/04/19 14:17:14;;;;;;;6.07;5.57;;;;;;;;;;5418454;26;20389;-79
2024/04/19 14:19:40;;;;;;;5.85;5.35;;;;;;;;;;5416547;26;20347;-79
2024/04/19 14:22:06;;;;;;;5.60;5.10;;;;;;;;;;5418700;26;20351;-79
2024/04/19 14:24:32;;;;;;;5.72;5.22;;;;;;;;;;5416569;26;20331;-79
2024/04/19 14:26:58;;;;;;;5.38;4.88;;;;;;;;;;5416988;26;20343;-79
2024/04/19 14:29:24;;;;;;;5.75;5.25;;;;;;;;;;5416848;26;20339;-79
2024/04/19 14:31:50;;;;;;;6.00;5.50;;;;;;;;;;5417394;26;20380;-79
2024/04/19 14:34:16;;;;;;;6.27;5.77;;;;;;;;;;5417761;26;20465;-79